createdAt,value
2019-05-20T00:00:31.506Z,97055.05
2019-05-20T00:03:05.108Z,97047.66
2019-05-20T00:05:37.516Z,97048.95
2019-05-20T00:08:09.852Z,97040.45
2019-05-20T00:10:41.404Z,97039.02
2019-05-20T00:13:16.624Z,97035.03
2019-05-20T00:15:48.879Z,97024.09
2019-05-20T00:18:23.564Z,97019.98
2019-05-20T00:20:57.058Z,97015.11
2019-05-20T00:23:30.074Z,97020.31
2019-05-20T00:26:04.014Z,97011.23
2019-05-20T00:28:37.915Z,97013.41
2019-05-20T00:31:14.717Z,97019.69
2019-05-20T00:33:46.351Z,97025.09
2019-05-20T00:36:20.984Z,97020.17
2019-05-20T00:39:10.896Z,97015.77
2019-05-20T00:41:44.536Z,97013.85
2019-05-20T00:44:19.243Z,97013.85
2019-05-20T00:46:51.123Z,97005.13
2019-05-20T00:49:23.903Z,97007.69
2019-05-20T00:51:55.556Z,97011.30
2019-05-20T00:54:28.854Z,97011.63
2019-05-20T00:57:00.536Z,97019.77
2019-05-20T00:59:33.164Z,97012.73
2019-05-20T01:02:09.158Z,97006.45
2019-05-20T01:04:40.854Z,97009.81
2019-05-20T01:07:14.220Z,97010.70
2019-05-20T01:09:46.079Z,97002.08
2019-05-20T01:12:20.179Z,97001.02
2019-05-20T01:14:51.779Z,96998.91
2019-05-20T01:17:25.354Z,97003.33
2019-05-20T01:19:56.870Z,96996.80
2019-05-20T01:22:29.619Z,96992.58
2019-05-20T01:25:02.194Z,96995.89
2019-05-20T01:27:34.441Z,96984.10
2019-05-20T01:30:07.751Z,96984.10
2019-05-20T01:32:41.101Z,96982.48
2019-05-20T01:35:15.172Z,96975.39
2019-05-20T01:37:47.134Z,96972.91
2019-05-20T01:40:20.702Z,96971.06
2019-05-20T01:42:54.011Z,96962.86
2019-05-20T01:45:26.012Z,96962.97
2019-05-20T01:47:58.043Z,96955.58
2019-05-20T01:50:30.777Z,96951.37
2019-05-20T01:53:03.119Z,96946.72
2019-05-20T01:55:35.031Z,96940.70
2019-05-20T01:58:08.290Z,96929.42
2019-05-20T02:00:42.281Z,96917.84
2019-05-20T02:03:30.369Z,96917.84
2019-05-20T02:05:50.133Z,96915.69
2019-05-20T02:08:23.229Z,96904.64
2019-05-20T02:10:56.707Z,96890.17
2019-05-20T02:13:47.262Z,96890.66
2019-05-20T02:16:23.617Z,96880.91
2019-05-20T02:18:55.919Z,96875.70
2019-05-20T02:21:30.838Z,96872.00
2019-05-20T02:24:02.459Z,96877.69
2019-05-20T02:26:34.990Z,96873.30
2019-05-20T02:29:08.274Z,96867.91
2019-05-20T02:31:40.429Z,96860.20
2019-05-20T02:34:12.660Z,96858.50
2019-05-20T02:36:45.261Z,96861.49
2019-05-20T02:39:19.398Z,96864.48
2019-05-20T02:41:51.426Z,96873.59
2019-05-20T02:44:24.014Z,96883.34
2019-05-20T02:46:55.995Z,96889.92
2019-05-20T02:49:27.773Z,96888.06
2019-05-20T02:51:59.419Z,96891.42
2019-05-20T02:54:32.704Z,96892.05
2019-05-20T02:57:04.270Z,96883.30
2019-05-20T02:59:35.928Z,96886.28
2019-05-20T03:02:09.043Z,96878.09
2019-05-20T03:04:42.944Z,96888.77
2019-05-20T03:07:16.571Z,96886.98
2019-05-20T03:09:49.240Z,96888.90
2019-05-20T03:12:25.044Z,96891.70
2019-05-20T03:14:59.480Z,96883.77
2019-05-20T03:17:33.246Z,96879.93
2019-05-20T03:20:06.077Z,96880.78
2019-05-20T03:22:38.049Z,96883.97
2019-05-20T03:25:09.875Z,96889.66
2019-05-20T03:27:42.402Z,96882.42
2019-05-20T03:30:15.846Z,96884.95
2019-05-20T03:32:50.323Z,96890.87
2019-05-20T03:35:21.880Z,96890.80
2019-05-20T03:37:54.930Z,96888.76
2019-05-20T03:40:27.149Z,96885.34
2019-05-20T03:43:00.973Z,96886.64
2019-05-20T03:45:34.638Z,96889.85
2019-05-20T03:48:08.259Z,96894.57
2019-05-20T03:50:40.528Z,96895.80
2019-05-20T03:53:12.876Z,96900.92
2019-05-20T03:55:46.290Z,96902.48
2019-05-20T03:58:19.977Z,96899.61
2019-05-20T04:00:55.140Z,96897.95
2019-05-20T04:03:28.555Z,96897.48
2019-05-20T04:06:02.987Z,96902.47
2019-05-20T04:08:35.102Z,96907.93
2019-05-20T04:11:07.088Z,96901.53
2019-05-20T04:13:39.208Z,96893.59
2019-05-20T04:16:10.889Z,96874.55
2019-05-20T04:18:44.169Z,96851.63
2019-05-20T04:21:15.836Z,96848.27
2019-05-20T04:23:47.442Z,96856.09
2019-05-20T04:26:22.923Z,96848.87
2019-05-20T04:28:54.738Z,96850.23
2019-05-20T04:31:28.010Z,96843.36
2019-05-20T04:33:59.764Z,96838.56
2019-05-20T04:36:32.014Z,96848.20
2019-05-20T04:39:05.602Z,96850.89
2019-05-20T04:41:37.586Z,96835.80
2019-05-20T04:44:10.167Z,96837.23
2019-05-20T04:46:44.131Z,96826.81
2019-05-20T04:49:17.164Z,96824.56
2019-05-20T04:51:50.442Z,96845.57
2019-05-20T04:54:25.260Z,96840.52
2019-05-20T04:56:59.683Z,96841.17
2019-05-20T04:59:33.706Z,96862.98
2019-05-20T05:02:06.904Z,96866.94
2019-05-20T05:04:39.801Z,96865.20
2019-05-20T05:07:13.045Z,96856.13
2019-05-20T05:09:46.459Z,96837.08
2019-05-20T05:12:19.243Z,96833.87
2019-05-20T05:14:52.615Z,96831.56
2019-05-20T05:17:27.005Z,96829.47
2019-05-20T05:19:59.098Z,96829.47
2019-05-20T05:22:31.814Z,96833.19
2019-05-20T05:25:04.976Z,96816.68
2019-05-20T05:27:37.987Z,96815.86
2019-05-20T05:30:09.991Z,96829.80
2019-05-20T05:32:45.007Z,96814.26
2019-05-20T05:35:18.284Z,96819.02
2019-05-20T05:37:50.789Z,96807.81
2019-05-20T05:40:26.019Z,96804.19
2019-05-20T05:43:00.510Z,96810.00
2019-05-20T05:45:33.895Z,96815.05
2019-05-20T05:48:06.033Z,96819.49
2019-05-20T05:50:38.966Z,96827.37
2019-05-20T05:53:13.426Z,96844.38
2019-05-20T05:55:45.385Z,96869.80
2019-05-20T05:58:17.071Z,96881.64
2019-05-20T06:00:49.916Z,96891.31
2019-05-20T06:03:22.617Z,96899.22
2019-05-20T06:06:10.601Z,96904.27
2019-05-20T06:08:31.652Z,96908.07
2019-05-20T06:11:03.833Z,96909.82
2019-05-20T06:13:36.934Z,96898.84
2019-05-20T06:16:08.516Z,96890.63
2019-05-20T06:18:40.262Z,96888.02
2019-05-20T06:21:12.231Z,96883.53
2019-05-20T06:23:46.323Z,96878.36
2019-05-20T06:26:18.997Z,96880.38
2019-05-20T06:28:51.331Z,96874.34
2019-05-20T06:31:23.099Z,96866.06
2019-05-20T06:33:57.541Z,96868.80
2019-05-20T06:36:29.110Z,96868.69
2019-05-20T06:39:14.485Z,96857.45
2019-05-20T06:41:48.006Z,96842.45
2019-05-20T06:44:20.725Z,96860.37
2019-05-20T06:46:54.240Z,96866.41
2019-05-20T06:49:27.738Z,96861.45
2019-05-20T06:52:00.593Z,96850.00
2019-05-20T06:54:33.069Z,96877.53
2019-05-20T06:57:07.669Z,96892.57
2019-05-20T06:59:40.556Z,96888.54
2019-05-20T07:02:14.784Z,96864.73
2019-05-20T07:04:47.492Z,96871.45
2019-05-20T07:07:21.429Z,96891.51
2019-05-20T07:09:54.971Z,96902.79
2019-05-20T07:12:40.122Z,96911.75
2019-05-20T07:15:02.109Z,96910.73
2019-05-20T07:17:39.033Z,96895.88
2019-05-20T07:20:11.792Z,96893.59
2019-05-20T07:22:55.593Z,96892.78
2019-05-20T07:25:19.052Z,96883.38
2019-05-20T07:27:52.877Z,96873.62
2019-05-20T07:30:27.492Z,96870.50
2019-05-20T07:32:59.427Z,96883.69
2019-05-20T07:35:32.421Z,96890.32
2019-05-20T07:38:04.159Z,96889.61
2019-05-20T07:40:37.877Z,96902.24
2019-05-20T07:43:09.782Z,96904.94
2019-05-20T07:45:44.161Z,96904.94
2019-05-20T07:48:16.765Z,96909.89
2019-05-20T07:50:50.420Z,96901.44
2019-05-20T07:53:27.279Z,96905.52
2019-05-20T07:56:06.021Z,96913.80
2019-05-20T07:58:41.890Z,96927.47
2019-05-20T08:01:14.178Z,96924.80
2019-05-20T08:03:46.839Z,96929.02
2019-05-20T08:06:23.969Z,96934.70
2019-05-20T08:09:01.836Z,96936.86
2019-05-20T08:11:35.171Z,96944.00
2019-05-20T08:14:07.952Z,96952.11
2019-05-20T08:16:40.157Z,96952.68
2019-05-20T08:19:13.469Z,96959.61
2019-05-20T08:21:48.487Z,96963.54
2019-05-20T08:24:23.210Z,96963.12
2019-05-20T08:26:55.744Z,96964.59
2019-05-20T08:29:29.619Z,96969.60
2019-05-20T08:32:03.814Z,96971.59
2019-05-20T08:34:35.732Z,96962.07
2019-05-20T08:37:10.580Z,96957.78
2019-05-20T08:39:44.408Z,96972.78
2019-05-20T08:42:16.134Z,96985.70
2019-05-20T08:44:48.719Z,96992.33
2019-05-20T08:47:20.624Z,96989.47
2019-05-20T08:49:52.505Z,96997.09
2019-05-20T08:52:24.204Z,97000.00
2019-05-20T08:54:58.254Z,97003.84
2019-05-20T08:57:33.138Z,97010.21
2019-05-20T09:00:09.260Z,97011.97
2019-05-20T09:02:41.296Z,97016.20
2019-05-20T09:05:14.650Z,97004.67
2019-05-20T09:08:01.495Z,97016.27
2019-05-20T09:10:24.502Z,97019.69
2019-05-20T09:13:00.674Z,97020.06
2019-05-20T09:15:33.321Z,97023.63
2019-05-20T09:18:07.355Z,97031.30
2019-05-20T09:20:39.469Z,97029.45
2019-05-20T09:23:14.372Z,97042.56
2019-05-20T09:25:47.966Z,97042.80
2019-05-20T09:28:20.838Z,97053.34
2019-05-20T09:30:56.129Z,97053.65
2019-05-20T09:33:30.717Z,97064.27
2019-05-20T09:36:05.250Z,97068.64
2019-05-20T09:38:37.539Z,97071.97
2019-05-20T09:41:10.914Z,97082.33
2019-05-20T09:43:42.968Z,97086.12
2019-05-20T09:46:14.510Z,97093.14
2019-05-20T09:48:47.507Z,97097.06
2019-05-20T09:51:20.578Z,97096.17
2019-05-20T09:53:52.630Z,97095.83
2019-05-20T09:56:24.671Z,97101.81
2019-05-20T09:58:57.514Z,97109.48
2019-05-20T10:01:31.901Z,97106.17
2019-05-20T10:04:04.770Z,97109.05
2019-05-20T10:06:37.264Z,97111.67
2019-05-20T10:09:11.573Z,97111.67
2019-05-20T10:11:46.335Z,97120.52
2019-05-20T10:14:18.487Z,97119.25
2019-05-20T10:16:52.531Z,97127.16
2019-05-20T10:19:25.239Z,97122.50
2019-05-20T10:21:57.468Z,97124.33
2019-05-20T10:24:29.232Z,97125.45
2019-05-20T10:27:02.349Z,97133.73
2019-05-20T10:29:38.088Z,97131.19
2019-05-20T10:32:12.280Z,97133.63
2019-05-20T10:34:43.823Z,97128.67
2019-05-20T10:37:16.439Z,97123.27
2019-05-20T10:39:48.589Z,97125.34
2019-05-20T10:42:23.970Z,97128.34
2019-05-20T10:44:56.567Z,97136.77
2019-05-20T10:47:29.382Z,97150.45
2019-05-20T10:50:01.220Z,97154.29
2019-05-20T10:52:36.516Z,97157.67
2019-05-20T10:55:08.825Z,97157.52
2019-05-20T10:57:40.795Z,97170.45
2019-05-20T11:00:17.488Z,97184.03
2019-05-20T11:02:50.371Z,97191.55
2019-05-20T11:05:25.191Z,97188.62
2019-05-20T11:07:57.023Z,97187.55
2019-05-20T11:10:28.671Z,97185.69
2019-05-20T11:13:04.224Z,97189.95
2019-05-20T11:15:38.020Z,97189.63
2019-05-20T11:18:09.558Z,97185.97
2019-05-20T11:20:41.555Z,97182.67
2019-05-20T11:23:14.270Z,97185.44
2019-05-20T11:25:47.566Z,97190.99
2019-05-20T11:28:21.965Z,97189.70
2019-05-20T11:30:54.518Z,97187.51
2019-05-20T11:33:29.038Z,97180.38
2019-05-20T11:36:00.827Z,97178.91
2019-05-20T11:38:34.552Z,97176.08
2019-05-20T11:41:07.012Z,97171.80
2019-05-20T11:43:40.701Z,97171.80
2019-05-20T11:46:13.311Z,97166.60
2019-05-20T11:48:47.474Z,97175.58
2019-05-20T11:51:20.885Z,97172.30
2019-05-20T11:53:54.426Z,97168.50
2019-05-20T11:56:26.051Z,97179.28
2019-05-20T11:58:59.804Z,97177.34
2019-05-20T12:01:32.439Z,97180.09
2019-05-20T12:04:04.948Z,97191.78
2019-05-20T12:06:36.995Z,97181.92
2019-05-20T12:09:10.861Z,97184.75
2019-05-20T12:11:43.892Z,97191.41
2019-05-20T12:14:16.364Z,97196.47
2019-05-20T12:16:49.799Z,97199.06
2019-05-20T12:19:21.413Z,97192.70
2019-05-20T12:21:53.015Z,97193.46
2019-05-20T12:24:27.089Z,97201.56
2019-05-20T12:26:58.950Z,97184.62
2019-05-20T12:29:31.850Z,97177.38
2019-05-20T12:32:05.327Z,97173.48
2019-05-20T12:34:38.789Z,97169.48
2019-05-20T12:37:12.664Z,97172.13
2019-05-20T12:39:45.771Z,97179.01
2019-05-20T12:42:20.346Z,97174.76
2019-05-20T12:44:53.046Z,97165.25
2019-05-20T12:47:26.450Z,97166.80
2019-05-20T12:49:59.203Z,97156.63
2019-05-20T12:52:33.126Z,97151.28
2019-05-20T12:55:09.482Z,97142.49
2019-05-20T12:57:41.770Z,97126.98
2019-05-20T13:00:16.085Z,97134.59
2019-05-20T13:02:48.221Z,97122.93
2019-05-20T13:05:20.584Z,97121.88
2019-05-20T13:07:54.931Z,97110.63
2019-05-20T13:10:31.766Z,97093.83
2019-05-20T13:13:02.821Z,97092.73
2019-05-20T13:15:36.773Z,97105.45
2019-05-20T13:18:08.825Z,97101.47
2019-05-20T13:20:40.623Z,97093.33
2019-05-20T13:23:14.633Z,97098.52
2019-05-20T13:25:47.680Z,97104.03
2019-05-20T13:28:21.486Z,97115.05
2019-05-20T13:30:55.060Z,97119.28
2019-05-20T13:33:27.394Z,97116.51
2019-05-20T13:35:59.271Z,97121.89
2019-05-20T13:38:32.266Z,97121.90
2019-05-20T13:41:05.051Z,97112.51
2019-05-20T13:43:38.260Z,97116.77
2019-05-20T13:46:09.890Z,97104.66
2019-05-20T13:48:44.687Z,97107.08
2019-05-20T13:51:18.349Z,97109.96
2019-05-20T13:53:50.948Z,97108.85
2019-05-20T13:56:24.469Z,97110.48
2019-05-20T13:58:58.124Z,97110.63
2019-05-20T14:01:30.026Z,97119.83
2019-05-20T14:04:02.040Z,97115.34
2019-05-20T14:06:34.819Z,97114.14
2019-05-20T14:09:08.612Z,97115.11
2019-05-20T14:11:41.981Z,97111.65
2019-05-20T14:14:17.997Z,97103.91
2019-05-20T14:16:51.756Z,97103.52
2019-05-20T14:19:23.407Z,97108.88
2019-05-20T14:21:56.199Z,97110.77
2019-05-20T14:24:30.280Z,97115.94
2019-05-20T14:27:02.073Z,97125.53
2019-05-20T14:29:35.307Z,97112.59
2019-05-20T14:32:08.534Z,97116.48
2019-05-20T14:34:41.397Z,97111.64
2019-05-20T14:37:15.752Z,97101.17
2019-05-20T14:39:48.662Z,97093.80
2019-05-20T14:42:21.043Z,97096.71
2019-05-20T14:44:56.358Z,97095.63
2019-05-20T14:47:28.383Z,97088.72
2019-05-20T14:50:00.029Z,97087.73
2019-05-20T14:52:32.331Z,97084.03
2019-05-20T14:55:04.843Z,97087.86
2019-05-20T14:57:36.775Z,97091.45
2019-05-20T15:00:10.591Z,97084.05
2019-05-20T15:02:44.054Z,97081.44
2019-05-20T15:05:17.389Z,97085.91
2019-05-20T15:07:49.631Z,97090.37
2019-05-20T15:10:22.611Z,97097.02
2019-05-20T15:12:56.755Z,97086.73
2019-05-20T15:15:30.839Z,97089.16
2019-05-20T15:18:02.558Z,97088.39
2019-05-20T15:20:36.492Z,97094.63
2019-05-20T15:23:08.080Z,97089.30
2019-05-20T15:25:40.582Z,97087.33
2019-05-20T15:28:12.855Z,97093.45
2019-05-20T15:30:45.962Z,97084.80
2019-05-20T15:33:17.742Z,97079.34
2019-05-20T15:35:49.987Z,97078.27
2019-05-20T15:38:21.925Z,97072.27
2019-05-20T15:40:57.547Z,97074.40
2019-05-20T15:43:30.927Z,97071.28
2019-05-20T15:46:02.729Z,97071.70
2019-05-20T15:48:36.061Z,97046.89
2019-05-20T15:51:07.801Z,97053.17
2019-05-20T15:53:40.246Z,97051.22
2019-05-20T15:56:11.808Z,97051.85
2019-05-20T15:58:45.100Z,97043.37
2019-05-20T16:01:17.372Z,97039.77
2019-05-20T16:03:51.475Z,97047.89
2019-05-20T16:06:25.061Z,97052.70
2019-05-20T16:08:57.839Z,97054.92
2019-05-20T16:11:29.844Z,97051.47
2019-05-20T16:14:02.251Z,97056.45
2019-05-20T16:16:34.306Z,97064.25
2019-05-20T16:19:07.733Z,97057.31
2019-05-20T16:21:41.463Z,97063.89
2019-05-20T16:24:13.244Z,97055.25
2019-05-20T16:26:46.604Z,97052.89
2019-05-20T16:29:20.501Z,97048.26
2019-05-20T16:31:54.644Z,97060.55
2019-05-20T16:34:28.348Z,97060.55
2019-05-20T16:37:00.869Z,97058.28
2019-05-20T16:39:34.649Z,97059.83
2019-05-20T16:42:09.349Z,97053.20
2019-05-20T16:44:44.461Z,97051.58
2019-05-20T16:47:16.766Z,97060.08
2019-05-20T16:49:51.355Z,97058.45
2019-05-20T16:52:24.548Z,97063.98
2019-05-20T16:54:56.430Z,97059.64
2019-05-20T16:57:28.948Z,97058.25
2019-05-20T17:00:01.046Z,97060.06
2019-05-20T17:02:35.724Z,97058.89
2019-05-20T17:05:09.429Z,97056.45
2019-05-20T17:07:43.555Z,97060.30
2019-05-20T17:10:19.448Z,97058.83
2019-05-20T17:12:52.004Z,97062.05
2019-05-20T17:15:24.154Z,97060.08
2019-05-20T17:17:57.538Z,97066.72
2019-05-20T17:20:30.524Z,97076.67
2019-05-20T17:23:02.618Z,97080.50
2019-05-20T17:25:36.958Z,97092.50
2019-05-20T17:28:09.385Z,97092.28
2019-05-20T17:30:45.243Z,97093.12
2019-05-20T17:33:14.976Z,97101.32
2019-05-20T17:35:47.085Z,97107.22
2019-05-20T17:38:20.793Z,97090.84
2019-05-20T17:40:53.503Z,97100.52
2019-05-20T17:43:28.514Z,97099.73
2019-05-20T17:46:02.763Z,97100.62
2019-05-20T17:48:35.632Z,97094.75
2019-05-20T17:51:09.000Z,97088.92
2019-05-20T17:53:43.324Z,97084.70
2019-05-20T17:56:15.507Z,97087.83
2019-05-20T17:58:48.386Z,97079.30
2019-05-20T18:01:20.442Z,97071.67
2019-05-20T18:03:53.522Z,97085.14
2019-05-20T18:06:25.787Z,97091.98
2019-05-20T18:09:00.921Z,97089.46
2019-05-20T18:11:34.515Z,97085.25
2019-05-20T18:14:06.812Z,97083.15
2019-05-20T18:16:39.250Z,97090.86
2019-05-20T18:19:11.578Z,97090.80
2019-05-20T18:21:44.743Z,97091.97
2019-05-20T18:24:18.393Z,97091.41
2019-05-20T18:26:51.618Z,97094.42
2019-05-20T18:29:24.122Z,97086.03
2019-05-20T18:31:56.497Z,97103.75
2019-05-20T18:34:29.879Z,97094.45
2019-05-20T18:37:02.187Z,97097.56
2019-05-20T18:39:38.729Z,97099.64
2019-05-20T18:42:12.424Z,97092.88
2019-05-20T18:44:48.678Z,97086.27
2019-05-20T18:47:23.757Z,97089.91
2019-05-20T18:49:57.729Z,97084.03
2019-05-20T18:52:30.703Z,97081.70
2019-05-20T18:55:03.163Z,97084.17
2019-05-20T18:57:37.580Z,97079.29
2019-05-20T19:00:13.919Z,97081.52
2019-05-20T19:02:47.054Z,97089.99
2019-05-20T19:05:20.680Z,97094.33
2019-05-20T19:07:53.950Z,97087.52
2019-05-20T19:10:27.245Z,97089.28
2019-05-20T19:13:01.042Z,97090.02
2019-05-20T19:15:35.682Z,97091.66
2019-05-20T19:18:11.030Z,97082.30
2019-05-20T19:20:43.702Z,97080.58
2019-05-20T19:23:17.827Z,97081.65
2019-05-20T19:25:50.899Z,97087.30
2019-05-20T19:28:25.424Z,97083.48
2019-05-20T19:31:01.635Z,97084.05
2019-05-20T19:33:34.322Z,97078.56
2019-05-20T19:36:07.416Z,97089.23
2019-05-20T19:38:40.964Z,97081.49
2019-05-20T19:41:14.708Z,97081.59
2019-05-20T19:43:47.640Z,97075.42
2019-05-20T19:46:23.212Z,97073.55
2019-05-20T19:48:55.211Z,97075.92
2019-05-20T19:51:27.143Z,97076.58
2019-05-20T19:53:59.694Z,97078.84
2019-05-20T19:56:32.940Z,97080.94
2019-05-20T19:59:06.054Z,97077.73
2019-05-20T20:01:40.184Z,97078.86
2019-05-20T20:04:14.247Z,97080.59
2019-05-20T20:06:48.719Z,97075.92
2019-05-20T20:09:22.022Z,97077.51
2019-05-20T20:11:54.741Z,97082.76
2019-05-20T20:14:27.216Z,97086.35
2019-05-20T20:17:00.871Z,97081.93
2019-05-20T20:19:32.692Z,97085.70
2019-05-20T20:22:08.216Z,97083.61
2019-05-20T20:24:44.410Z,97083.86
2019-05-20T20:27:19.556Z,97084.69
2019-05-20T20:29:51.304Z,97082.92
2019-05-20T20:32:36.796Z,97079.00
2019-05-20T20:34:57.724Z,97080.14
2019-05-20T20:37:32.258Z,97080.01
2019-05-20T20:40:06.734Z,97081.09
2019-05-20T20:42:40.883Z,97075.80
2019-05-20T20:45:13.265Z,97074.89
2019-05-20T20:47:45.059Z,97079.09
2019-05-20T20:50:20.508Z,97075.06
2019-05-20T20:52:52.931Z,97077.72
2019-05-20T20:55:27.553Z,97082.22
2019-05-20T20:57:59.399Z,97082.90
2019-05-20T21:00:31.192Z,97082.39
2019-05-20T21:03:04.541Z,97090.70
2019-05-20T21:05:36.775Z,97088.85
2019-05-20T21:08:08.390Z,97097.72
2019-05-20T21:10:40.886Z,97096.65
2019-05-20T21:13:16.835Z,97098.74
2019-05-20T21:15:49.448Z,97101.81
2019-05-20T21:18:23.660Z,97094.95
2019-05-20T21:20:56.021Z,97099.63
2019-05-20T21:23:28.459Z,97102.21
2019-05-20T21:26:03.135Z,97098.52
2019-05-20T21:28:37.640Z,97099.09
2019-05-20T21:31:12.304Z,97102.56
2019-05-20T21:33:45.028Z,97105.86
2019-05-20T21:36:17.323Z,97102.00
2019-05-20T21:38:50.852Z,97107.80
2019-05-20T21:41:27.878Z,97100.30
2019-05-20T21:44:02.088Z,97102.16
2019-05-20T21:46:36.880Z,97102.16
2019-05-20T21:49:08.461Z,97097.50
2019-05-20T21:51:43.487Z,97099.00
2019-05-20T21:54:15.576Z,97096.90
2019-05-20T21:56:50.327Z,97099.89
2019-05-20T21:59:24.634Z,97100.16
2019-05-20T22:01:58.565Z,97094.99
2019-05-20T22:04:31.093Z,97100.54
2019-05-20T22:07:03.949Z,97087.58
2019-05-20T22:09:39.269Z,97093.75
2019-05-20T22:12:13.327Z,97104.81
2019-05-20T22:14:46.096Z,97101.16
2019-05-20T22:17:21.120Z,97100.33
2019-05-20T22:19:52.867Z,97103.26
2019-05-20T22:22:32.707Z,97097.52
2019-05-20T22:25:09.856Z,97098.11
2019-05-20T22:27:41.821Z,97096.67
2019-05-20T22:30:15.219Z,97094.56
2019-05-20T22:32:48.235Z,97092.23
2019-05-20T22:35:21.000Z,97093.19
2019-05-20T22:37:54.250Z,97087.05
2019-05-20T22:40:28.616Z,97081.70
2019-05-20T22:43:01.021Z,97079.85
2019-05-20T22:45:33.334Z,97082.53
2019-05-20T22:48:06.396Z,97079.74
2019-05-20T22:50:40.420Z,97073.39
2019-05-20T22:53:14.611Z,97071.84
2019-05-20T22:55:47.321Z,97074.97
2019-05-20T22:58:21.919Z,97078.81
2019-05-20T23:00:57.572Z,97076.63
2019-05-20T23:03:30.898Z,97072.72
2019-05-20T23:06:05.859Z,97063.78
2019-05-20T23:08:39.885Z,97063.39
2019-05-20T23:11:13.692Z,97068.82
2019-05-20T23:13:46.514Z,97063.45
2019-05-20T23:16:19.991Z,97059.19
2019-05-20T23:18:52.996Z,97048.81
2019-05-20T23:21:25.867Z,97048.48
2019-05-20T23:23:58.948Z,97050.34
2019-05-20T23:26:31.083Z,97058.47
2019-05-20T23:29:04.308Z,97060.36
2019-05-20T23:31:36.754Z,97059.97
2019-05-20T23:34:12.766Z,97057.30
2019-05-20T23:36:44.220Z,97056.63
2019-05-20T23:39:16.658Z,97058.25
2019-05-20T23:41:48.924Z,97058.67
2019-05-20T23:44:23.004Z,97057.30
2019-05-20T23:46:56.079Z,97056.45
2019-05-20T23:49:29.871Z,97061.98
2019-05-20T23:52:02.953Z,97050.47
2019-05-20T23:54:36.694Z,97057.56
2019-05-20T23:57:08.972Z,97060.36
2019-05-20T23:59:42.849Z,97059.36
